Time;durP1;ratioP1;P1;durP2;ratioP2;P2;SDS_P1;SDS_P2;PMS_P1;PMS_P2;Temp;Humidity;BMP_temperature;BMP_pressure;BME280_temperature;BME280_humidity;BME280_pressure;Samples;Min_cycle;Max_cycle;Signal;HPM_P1;HPM_P2
2022/11/07 04:06:15;;;;;;;8.93;5.73;;;;;;;;;;6058072;23;20219;-89
2022/11/07 04:09:20;;;;;;;9.07;5.30;;;;;;;;;;6062703;23;20178;-92
2022/11/07 04:19:10;;;;;;;12.60;5.47;;;;;;;;;;6061725;23;20211;-89
2022/11/07 04:22:17;;;;;;;12.57;5.17;;;;;;;;;;6062548;23;20187;-90
2022/11/07 04:27:41;;;;;;;11.43;5.40;;;;;;;;;;6061132;23;20171;-91
2022/11/07 04:28:46;;;;;;;9.32;5.35;;;;;;;;;;6060738;23;20190;-90
2022/11/07 04:31:52;;;;;;;10.45;5.63;;;;;;;;;;6062459;23;20202;-89
2022/11/07 04:34:57;;;;;;;11.60;5.15;;;;;;;;;;6061967;23;20217;-90
2022/11/07 04:38:03;;;;;;;10.95;5.50;;;;;;;;;;6062285;23;20170;-90
2022/11/07 04:41:18;;;;;;;12.07;5.80;;;;;;;;;;6063144;23;20179;-91
2022/11/07 04:44:24;;;;;;;12.65;5.97;;;;;;;;;;6064396;23;20170;-91
2022/11/07 04:47:29;;;;;;;12.93;6.47;;;;;;;;;;6065911;23;20246;-88
2022/11/07 04:50:34;;;;;;;11.67;6.57;;;;;;;;;;6067039;23;20166;-89
2022/11/07 04:53:41;;;;;;;12.35;6.07;;;;;;;;;;6065003;23;20254;-91
2022/11/07 04:56:46;;;;;;;14.27;6.67;;;;;;;;;;6064415;23;20174;-90
2022/11/07 04:59:51;;;;;;;14.00;6.18;;;;;;;;;;6065671;23;20175;-91
2022/11/07 05:03:15;;;;;;;11.10;6.20;;;;;;;;;;6065289;23;20171;-88
2022/11/07 05:06:23;;;;;;;12.13;5.97;;;;;;;;;;6067083;23;20215;-91
2022/11/07 05:09:33;;;;;;;13.70;6.82;;;;;;;;;;6067771;23;20219;-92
2022/11/07 05:12:40;;;;;;;11.48;6.38;;;;;;;;;;6067739;23;20247;-88
2022/11/07 05:15:48;;;;;;;11.40;6.40;;;;;;;;;;6066701;23;20254;-90
2022/11/07 05:18:55;;;;;;;11.65;5.93;;;;;;;;;;6065428;23;20175;-89
2022/11/07 05:25:30;;;;;;;11.77;6.10;;;;;;;;;;6067124;23;20227;-91
2022/11/07 05:28:41;;;;;;;10.03;5.33;;;;;;;;;;6067900;23;20178;-91
2022/11/07 05:31:48;;;;;;;12.40;6.03;;;;;;;;;;6064955;23;20303;-87
2022/11/07 05:34:56;;;;;;;13.33;6.47;;;;;;;;;;6064397;23;20193;-91
2022/11/07 05:38:03;;;;;;;13.57;6.77;;;;;;;;;;6067494;23;20562;-88
2022/11/07 05:41:13;;;;;;;14.43;7.00;;;;;;;;;;6065855;23;20162;-90
2022/11/07 05:44:22;;;;;;;12.73;6.50;;;;;;;;;;6066449;23;20183;-87
2022/11/07 05:47:30;;;;;;;11.93;6.13;;;;;;;;;;6066661;23;20175;-89
2022/11/07 05:50:36;;;;;;;14.17;6.70;;;;;;;;;;6068833;23;20159;-90
2022/11/07 05:53:44;;;;;;;13.77;7.30;;;;;;;;;;6065275;23;20244;-89
2022/11/07 05:56:55;;;;;;;11.88;6.78;;;;;;;;;;6067515;23;20163;-89
2022/11/07 06:00:04;;;;;;;13.77;6.80;;;;;;;;;;6067318;23;20166;-91
2022/11/07 06:03:18;;;;;;;13.77;6.72;;;;;;;;;;6083652;23;20516;-88
2022/11/07 06:06:24;;;;;;;11.10;6.20;;;;;;;;;;6066093;23;20211;-88
2022/11/07 06:09:29;;;;;;;11.77;6.32;;;;;;;;;;6066509;23;20163;-91
2022/11/07 06:12:37;;;;;;;18.13;6.82;;;;;;;;;;6068320;23;20170;-91
2022/11/07 06:15:45;;;;;;;16.08;6.88;;;;;;;;;;6068640;23;20197;-93
2022/11/07 06:18:53;;;;;;;19.30;7.18;;;;;;;;;;6067178;23;20227;-90
2022/11/07 06:22:00;;;;;;;17.63;7.15;;;;;;;;;;6070330;23;20170;-90
2022/11/07 06:25:06;;;;;;;33.00;10.75;;;;;;;;;;6068330;23;20158;-89
2022/11/07 06:28:14;;;;;;;18.63;7.45;;;;;;;;;;6067093;23;20238;-88
2022/11/07 06:31:20;;;;;;;17.23;7.70;;;;;;;;;;6067517;23;20219;-89
2022/11/07 06:34:26;;;;;;;13.68;7.53;;;;;;;;;;6065266;23;20211;-89
2022/11/07 06:37:35;;;;;;;17.50;7.97;;;;;;;;;;6067704;23;20177;-89
2022/11/07 06:40:42;;;;;;;16.40;8.30;;;;;;;;;;6067447;23;20158;-90
2022/11/07 06:43:51;;;;;;;17.83;7.70;;;;;;;;;;6070454;23;20169;-90
2022/11/07 06:47:26;;;;;;;17.00;8.47;;;;;;;;;;6067317;23;20178;-94
2022/11/07 06:50:31;;;;;;;21.03;8.30;;;;;;;;;;6067702;23;20211;-91
2022/11/07 06:53:39;;;;;;;20.33;9.27;;;;;;;;;;6066704;23;20162;-89
2022/11/07 06:56:47;;;;;;;14.53;7.07;;;;;;;;;;6066754;23;20205;-90
2022/11/07 06:59:55;;;;;;;19.03;8.10;;;;;;;;;;6065601;23;20619;-89
2022/11/07 07:02:59;;;;;;;18.47;8.23;;;;;;;;;;6066929;23;20287;-90
2022/11/07 07:06:06;;;;;;;19.70;8.80;;;;;;;;;;6066200;23;20189;-89
2022/11/07 07:09:12;;;;;;;18.00;7.97;;;;;;;;;;6066410;23;20166;-88
2022/11/07 07:12:17;;;;;;;16.67;8.73;;;;;;;;;;6067093;23;20239;-91
2022/11/07 07:15:24;;;;;;;15.50;8.30;;;;;;;;;;6066450;23;20186;-90
2022/11/07 07:18:30;;;;;;;18.33;8.57;;;;;;;;;;6065750;23;20195;-90
2022/11/07 07:21:35;;;;;;;18.67;7.70;;;;;;;;;;6065234;23;20170;-91
2022/11/07 07:24:41;;;;;;;21.00;8.40;;;;;;;;;;6065468;23;20175;-90
2022/11/07 07:27:46;;;;;;;15.45;8.55;;;;;;;;;;6064738;23;20175;-90
2022/11/07 07:30:53;;;;;;;12.82;7.72;;;;;;;;;;6065496;23;20177;-91
2022/11/07 07:33:58;;;;;;;61.55;23.58;;;;;;;;;;6065913;23;20173;-91
2022/11/07 07:37:03;;;;;;;24.88;9.32;;;;;;;;;;6068722;23;20187;-92
2022/11/07 07:40:10;;;;;;;14.25;7.43;;;;;;;;;;6067318;23;20171;-90
2022/11/07 07:43:17;;;;;;;12.77;7.15;;;;;;;;;;6068387;23;20475;-90
2022/11/07 07:46:24;;;;;;;17.35;7.50;;;;;;;;;;6067683;23;20222;-91
2022/11/07 07:49:29;;;;;;;12.90;7.50;;;;;;;;;;6068389;23;20246;-91
2022/11/07 07:52:35;;;;;;;20.40;8.75;;;;;;;;;;6067084;23;20174;-90
2022/11/07 07:55:41;;;;;;;14.75;6.38;;;;;;;;;;6067915;23;20211;-90
2022/11/07 07:58:47;;;;;;;12.20;6.60;;;;;;;;;;6069969;23;20179;-90
2022/11/07 08:01:54;;;;;;;15.50;6.15;;;;;;;;;;6068460;23;20170;-91
2022/11/07 08:04:59;;;;;;;13.85;6.70;;;;;;;;;;6069109;23;20178;-89
2022/11/07 08:08:05;;;;;;;15.02;6.30;;;;;;;;;;6082925;23;20246;-90
2022/11/07 08:11:11;;;;;;;15.27;6.20;;;;;;;;;;6047303;23;20206;-90
2022/11/07 08:14:17;;;;;;;11.73;6.47;;;;;;;;;;6007767;23;20214;-91
2022/11/07 08:17:24;;;;;;;13.18;6.82;;;;;;;;;;5878089;24;20244;-93
2022/11/07 08:20:29;;;;;;;12.85;6.43;;;;;;;;;;5684201;25;20209;-89
2022/11/07 08:23:35;;;;;;;16.15;6.00;;;;;;;;;;5538307;25;20201;-90
2022/11/07 08:26:41;;;;;;;15.50;5.70;;;;;;;;;;5673700;25;20211;-89
2022/11/07 08:29:47;;;;;;;15.15;6.18;;;;;;;;;;5680133;25;20594;-89
2022/11/07 08:32:55;;;;;;;9.93;5.75;;;;;;;;;;5679610;25;20519;-89
2022/11/07 08:36:01;;;;;;;11.25;5.28;;;;;;;;;;5681507;25;20216;-87
2022/11/07 08:42:26;;;;;;;10.85;5.93;;;;;;;;;;5678121;25;20249;-89
2022/11/07 08:45:37;;;;;;;10.30;5.97;;;;;;;;;;5678593;25;20185;-91
2022/11/07 08:48:44;;;;;;;15.55;6.60;;;;;;;;;;5679209;25;20496;-89
2022/11/07 08:51:49;;;;;;;10.95;6.03;;;;;;;;;;5678450;25;20192;-89
2022/11/07 08:54:54;;;;;;;13.10;6.13;;;;;;;;;;5678550;25;20204;-90
2022/11/07 08:58:00;;;;;;;13.00;6.80;;;;;;;;;;5678352;25;20172;-89
2022/11/07 09:01:06;;;;;;;12.05;6.05;;;;;;;;;;5678570;25;20185;-88
2022/11/07 09:04:13;;;;;;;13.23;5.93;;;;;;;;;;5677713;25;20209;-90
2022/11/07 09:07:19;;;;;;;8.65;5.35;;;;;;;;;;5681854;25;20208;-91
2022/11/07 09:10:24;;;;;;;11.77;5.47;;;;;;;;;;5679408;25;20517;-93
2022/11/07 09:13:30;;;;;;;14.35;6.30;;;;;;;;;;5678912;25;20188;-91
2022/11/07 09:16:35;;;;;;;12.43;5.30;;;;;;;;;;5678189;25;20211;-91
2022/11/07 09:19:41;;;;;;;9.80;5.43;;;;;;;;;;5678479;25;20562;-90
2022/11/07 09:22:47;;;;;;;8.82;5.13;;;;;;;;;;5664592;25;20192;-91
2022/11/07 09:25:52;;;;;;;9.75;5.38;;;;;;;;;;5718755;25;20262;-89
2022/11/07 09:28:57;;;;;;;9.07;5.35;;;;;;;;;;5734400;25;20179;-89
2022/11/07 09:32:03;;;;;;;8.25;5.00;;;;;;;;;;5734599;25;20520;-89
2022/11/07 09:35:32;;;;;;;13.25;5.65;;;;;;;;;;5733804;24;20223;-92
2022/11/07 09:38:39;;;;;;;8.13;5.18;;;;;;;;;;5734699;25;20176;-90
2022/11/07 09:41:54;;;;;;;13.75;5.25;;;;;;;;;;5732400;25;20196;-89
2022/11/07 09:48:53;;;;;;;9.13;4.43;;;;;;;;;;5731870;25;20172;-89
2022/11/07 09:52:04;;;;;;;9.15;4.07;;;;;;;;;;5731883;25;20338;-90
2022/11/07 09:55:17;;;;;;;8.50;4.13;;;;;;;;;;5733151;25;20203;-89
2022/11/07 09:58:28;;;;;;;5.78;3.67;;;;;;;;;;5731689;25;20194;-92
2022/11/07 10:01:33;;;;;;;6.75;3.83;;;;;;;;;;5732184;25;20255;-90
2022/11/07 10:04:42;;;;;;;7.15;3.35;;;;;;;;;;5732715;25;20183;-89
2022/11/07 10:07:52;;;;;;;6.90;3.67;;;;;;;;;;5733151;25;20632;-90
2022/11/07 10:11:04;;;;;;;10.95;4.78;;;;;;;;;;5733069;25;20259;-89
2022/11/07 10:14:15;;;;;;;11.38;5.05;;;;;;;;;;5731756;25;20235;-89
2022/11/07 10:17:32;;;;;;;9.45;4.82;;;;;;;;;;5717409;25;20212;-89
2022/11/07 10:20:42;;;;;;;8.52;4.80;;;;;;;;;;5733207;25;20216;-90
2022/11/07 10:23:53;;;;;;;12.60;4.00;;;;;;;;;;5810199;24;20255;-90
2022/11/07 10:27:02;;;;;;;8.30;3.83;;;;;;;;;;5702649;24;20248;-90
